createdAt,value
2023-05-16T13:02:49.241Z,6.77
2023-05-16T13:05:17.678Z,7.30
2023-05-16T13:07:51.626Z,5.93
2023-05-16T13:10:20.199Z,6.13
2023-05-16T13:12:48.553Z,6.20
2023-05-16T13:15:16.787Z,5.93
2023-05-16T13:17:45.248Z,6.03
2023-05-16T13:20:15.661Z,6.10
2023-05-16T13:22:44.289Z,5.43
2023-05-16T13:25:13.280Z,5.90
2023-05-16T13:27:41.648Z,5.23
2023-05-16T13:30:11.141Z,5.83
2023-05-16T13:32:39.481Z,10.87
2023-05-16T13:35:09.715Z,6.00
2023-05-16T13:37:41.482Z,4.67
2023-05-16T13:40:11.348Z,4.00
2023-05-16T13:42:39.862Z,4.23
2023-05-16T13:45:09.116Z,3.63
2023-05-16T13:47:37.802Z,4.60
2023-05-16T13:50:10.393Z,3.80
2023-05-16T13:52:40.724Z,4.33
2023-05-16T13:55:09.774Z,4.80
2023-05-16T13:57:38.121Z,4.57
2023-05-16T14:02:44.032Z,5.17
2023-05-16T14:05:13.906Z,5.47
2023-05-16T14:07:46.126Z,5.90
2023-05-16T14:10:15.177Z,5.53
2023-05-16T14:12:43.588Z,5.80
2023-05-16T14:15:12.152Z,7.10
2023-05-16T14:17:40.535Z,6.47
2023-05-16T14:20:10.772Z,7.03
2023-05-16T14:22:39.136Z,7.03
2023-05-16T14:25:09.734Z,9.43
2023-05-16T14:27:37.960Z,9.33
2023-05-16T14:30:08.203Z,7.37
2023-05-16T14:32:36.677Z,7.57
2023-05-16T14:35:06.220Z,9.60
2023-05-16T14:37:34.553Z,7.07
2023-05-16T14:40:02.844Z,7.37
2023-05-16T14:42:32.572Z,7.20
2023-05-16T14:45:00.844Z,7.60
2023-05-16T14:47:31.431Z,8.13
2023-05-16T14:50:01.291Z,7.53
2023-05-16T14:52:29.604Z,7.60
2023-05-16T14:54:57.758Z,7.60
2023-05-16T14:57:25.948Z,8.30
2023-05-16T14:59:55.634Z,8.93
2023-05-16T15:02:23.963Z,8.70
2023-05-16T15:04:52.356Z,7.67
2023-05-16T15:07:20.858Z,8.73
2023-05-16T15:09:49.051Z,7.73
2023-05-16T15:12:17.505Z,7.00
2023-05-16T15:14:45.971Z,8.13
2023-05-16T15:17:15.898Z,7.53
2023-05-16T15:19:44.181Z,7.77
2023-05-16T15:22:12.601Z,7.27
2023-05-16T15:24:40.992Z,8.13
2023-05-16T15:27:09.228Z,8.93
2023-05-16T15:29:37.454Z,8.80
2023-05-16T15:32:06.751Z,7.90
2023-05-16T15:34:36.637Z,8.23
2023-05-16T15:37:05.105Z,7.67
2023-05-16T15:39:33.436Z,8.10
2023-05-16T15:42:10.844Z,9.63
2023-05-16T15:44:39.877Z,9.33
2023-05-16T15:47:08.616Z,9.13
2023-05-16T15:49:38.228Z,9.23
2023-05-16T15:52:07.092Z,9.30
2023-05-16T15:54:35.706Z,10.03
2023-05-16T15:57:04.005Z,10.93
2023-05-16T15:59:32.406Z,10.37
2023-05-16T16:02:04.331Z,11.87
2023-05-16T16:04:32.906Z,12.00
2023-05-16T16:07:06.559Z,10.97
2023-05-16T16:09:34.984Z,18.90
2023-05-16T16:12:03.519Z,11.87
2023-05-16T16:14:31.693Z,11.37
2023-05-16T16:16:59.941Z,12.17
2023-05-16T16:19:28.211Z,12.00
2023-05-16T16:21:56.705Z,11.00
2023-05-16T16:24:26.508Z,11.53
2023-05-16T16:26:54.774Z,11.53
2023-05-16T16:29:23.259Z,11.00
2023-05-16T16:31:53.273Z,11.87
2023-05-16T16:34:23.278Z,11.80
2023-05-16T16:36:51.684Z,12.40
2023-05-16T16:39:19.903Z,11.90
2023-05-16T16:41:49.974Z,12.50
2023-05-16T16:44:18.190Z,12.53
2023-05-16T16:46:46.512Z,13.37
2023-05-16T16:49:14.795Z,13.53
2023-05-16T16:51:43.048Z,13.23
2023-05-16T16:54:11.252Z,14.37
2023-05-16T16:56:39.421Z,14.67
2023-05-16T16:59:09.279Z,15.20
2023-05-16T17:01:37.717Z,15.37
2023-05-16T17:04:06.345Z,15.13
2023-05-16T17:06:34.529Z,16.27
2023-05-16T17:09:05.295Z,16.63
2023-05-16T17:11:36.350Z,16.10
2023-05-16T17:14:06.336Z,16.90
2023-05-16T17:16:41.000Z,16.70
2023-05-16T17:19:09.390Z,18.97
2023-05-16T17:21:41.943Z,19.50
2023-05-16T17:24:10.837Z,18.33
2023-05-16T17:26:39.285Z,18.40
2023-05-16T17:29:07.754Z,16.80
2023-05-16T17:31:36.325Z,18.87
2023-05-16T17:34:06.374Z,19.40
2023-05-16T17:36:34.727Z,22.02
2023-05-16T17:39:07.891Z,20.50
2023-05-16T17:41:36.363Z,19.80
2023-05-16T17:44:06.923Z,20.77
2023-05-16T17:46:35.273Z,21.90
2023-05-16T17:49:03.503Z,20.63
2023-05-16T17:51:46.597Z,20.53
2023-05-16T17:54:16.309Z,19.90
2023-05-16T17:56:45.976Z,20.77
2023-05-16T17:59:15.555Z,19.93
2023-05-16T18:01:44.995Z,21.43
2023-05-16T18:04:13.411Z,20.53
2023-05-16T18:06:44.161Z,20.00
2023-05-16T18:09:15.078Z,20.70
2023-05-16T18:11:43.298Z,19.37
2023-05-16T18:14:12.910Z,19.77
2023-05-16T18:16:41.154Z,21.00
2023-05-16T18:19:09.665Z,21.83
2023-05-16T18:21:38.502Z,22.20
2023-05-16T18:24:11.534Z,20.17
2023-05-16T18:26:39.866Z,21.90
2023-05-16T18:29:10.717Z,19.90
2023-05-16T18:31:41.388Z,21.63
2023-05-16T18:34:09.766Z,20.60
2023-05-16T18:36:37.967Z,20.47
2023-05-16T18:39:09.006Z,21.20
2023-05-16T18:41:37.246Z,20.33
2023-05-16T18:44:05.791Z,20.17
2023-05-16T18:46:34.328Z,21.17
2023-05-16T18:49:02.750Z,21.87
2023-05-16T18:51:31.093Z,22.03
2023-05-16T18:53:59.527Z,22.90
2023-05-16T18:56:29.261Z,23.30
2023-05-16T18:58:57.450Z,22.07
2023-05-16T19:01:25.694Z,20.23
2023-05-16T19:03:54.081Z,18.40
2023-05-16T19:06:23.364Z,22.30
2023-05-16T19:08:51.889Z,19.77
2023-05-16T19:11:20.224Z,20.37
2023-05-16T19:13:49.925Z,20.67
2023-05-16T19:16:18.816Z,20.73
2023-05-16T19:18:47.248Z,19.80
2023-05-16T19:21:16.052Z,18.77
2023-05-16T19:23:45.355Z,19.90
2023-05-16T19:26:14.032Z,19.97
2023-05-16T19:28:45.073Z,17.17
2023-05-16T19:31:15.057Z,17.37
2023-05-16T19:33:43.291Z,16.23
2023-05-16T19:36:11.862Z,17.20
2023-05-16T19:38:40.220Z,16.53
2023-05-16T19:41:09.007Z,17.80
2023-05-16T19:43:37.709Z,17.13
2023-05-16T19:46:06.955Z,17.20
2023-05-16T19:48:37.012Z,16.73
2023-05-16T19:51:05.573Z,15.70
2023-05-16T19:53:34.101Z,16.50
2023-05-16T19:56:02.968Z,15.37
2023-05-16T19:58:31.430Z,15.70
2023-05-16T20:01:00.175Z,16.57
2023-05-16T20:03:28.717Z,15.30
2023-05-16T20:05:58.636Z,14.40
2023-05-16T20:08:27.059Z,14.03
2023-05-16T20:10:55.982Z,14.93
2023-05-16T20:13:25.765Z,15.10
2023-05-16T20:15:53.951Z,14.73
2023-05-16T20:18:22.206Z,16.37
2023-05-16T20:20:50.774Z,14.47
2023-05-16T20:23:20.452Z,14.27
2023-05-16T20:25:48.712Z,14.80
2023-05-16T20:28:17.094Z,14.03
2023-05-16T20:30:45.586Z,13.93
2023-05-16T20:33:13.931Z,13.17
2023-05-16T20:35:42.487Z,12.77
2023-05-16T20:38:10.632Z,11.00
2023-05-16T20:40:40.275Z,10.70
2023-05-16T20:43:08.497Z,13.50
2023-05-16T20:45:36.881Z,12.37
2023-05-16T20:48:08.240Z,12.20
2023-05-16T20:50:39.141Z,16.47
2023-05-16T20:53:07.450Z,16.43
2023-05-16T20:55:35.805Z,17.17
2023-05-16T20:58:05.399Z,14.90
2023-05-16T21:00:34.111Z,14.17
2023-05-16T21:03:02.397Z,15.77
2023-05-16T21:05:32.584Z,15.33
2023-05-16T21:08:00.897Z,15.00
2023-05-16T21:10:29.129Z,14.10
2023-05-16T21:12:57.341Z,9.77
2023-05-16T21:15:27.109Z,8.60
2023-05-16T21:17:55.423Z,7.47
2023-05-16T21:20:23.664Z,8.73
2023-05-16T21:23:02.151Z,9.50
2023-05-16T21:25:30.506Z,9.07
2023-05-16T21:27:58.850Z,6.83
2023-05-16T21:30:28.363Z,6.53
2023-05-16T21:32:56.716Z,6.60
2023-05-16T21:35:25.420Z,5.83
2023-05-16T21:37:53.801Z,6.03
2023-05-16T21:40:25.051Z,5.50
2023-05-16T21:42:53.706Z,5.37
2023-05-16T21:45:22.069Z,5.63
2023-05-16T21:47:51.748Z,4.90
2023-05-16T21:50:20.211Z,5.47
2023-05-16T21:52:48.645Z,5.90
2023-05-16T21:55:16.892Z,5.43
2023-05-16T21:57:45.072Z,6.00
2023-05-16T22:00:14.601Z,5.17
2023-05-16T22:02:43.085Z,5.50
2023-05-16T22:05:13.697Z,5.60
2023-05-16T22:07:42.078Z,6.03
2023-05-16T22:10:11.621Z,6.70
2023-05-16T22:12:39.768Z,6.87
2023-05-16T22:15:09.012Z,6.37
2023-05-16T22:17:37.295Z,6.10
2023-05-16T22:20:06.230Z,5.47
2023-05-16T22:22:36.402Z,5.67
2023-05-16T22:25:05.346Z,5.73
2023-05-16T22:27:33.492Z,5.90
2023-05-16T22:30:01.673Z,5.43
2023-05-16T22:32:29.979Z,5.47
2023-05-16T22:34:58.113Z,5.43
2023-05-16T22:37:26.952Z,5.73
2023-05-16T22:39:57.392Z,5.57
2023-05-16T22:42:25.987Z,5.13
2023-05-16T22:44:54.226Z,4.80
2023-05-16T22:47:22.461Z,4.87
2023-05-16T22:49:51.100Z,4.83
2023-05-16T22:52:19.309Z,6.20
2023-05-16T22:54:47.618Z,5.90
2023-05-16T22:57:17.311Z,5.47
2023-05-16T22:59:45.452Z,4.67
2023-05-16T23:02:13.654Z,5.60
2023-05-16T23:04:41.842Z,5.10
2023-05-16T23:07:10.046Z,6.60
2023-05-16T23:09:38.348Z,5.33
2023-05-16T23:12:07.019Z,4.60
2023-05-16T23:14:36.573Z,5.57
2023-05-16T23:17:05.443Z,5.03
2023-05-16T23:19:33.795Z,4.97
2023-05-16T23:22:03.517Z,5.40
2023-05-16T23:24:31.685Z,4.90
2023-05-16T23:26:59.876Z,4.87
2023-05-16T23:29:28.037Z,5.13
2023-05-16T23:31:57.564Z,5.17
2023-05-16T23:34:25.747Z,4.73
2023-05-16T23:36:53.991Z,4.90
2023-05-16T23:39:22.309Z,5.10
2023-05-16T23:41:50.529Z,5.40
2023-05-16T23:44:18.913Z,5.20
2023-05-16T23:46:47.064Z,5.20
2023-05-16T23:49:16.746Z,5.27
2023-05-16T23:51:56.855Z,5.00
2023-05-16T23:54:26.436Z,4.90
2023-05-16T23:56:55.068Z,4.97
2023-05-16T23:59:23.233Z,5.03
